Time;durP1;ratioP1;P1;durP2;ratioP2;P2;SDS_P1;SDS_P2;PMS_P1;PMS_P2;Temp;Humidity;BMP_temperature;BMP_pressure;BME280_temperature;BME280_humidity;BME280_pressure;Samples;Min_cycle;Max_cycle;Signal;HPM_P1;HPM_P2
2020/12/05 00:05:01;;;;;;;11.60;2.13;;;;;;;0.45;100.00;96676.17;3849555;76;400238;-79
2020/12/05 00:10:06;;;;;;;6.00;3.57;;;;;;;0.48;100.00;96675.98;3827888;76;396039;-79
2020/12/05 00:15:11;;;;;;;1.83;1.73;;;;;;;0.59;100.00;96660.48;3766296;77;396331;-79
2020/12/05 00:20:16;;;;;;;3.23;2.60;;;;;;;0.58;100.00;96673.80;3756810;77;396339;-78
2020/12/05 00:25:22;;;;;;;8.13;2.20;;;;;;;0.50;100.00;96692.01;3751757;77;394002;-77
2020/12/05 00:30:28;;;;;;;8.73;2.63;;;;;;;0.46;100.00;96687.77;3756865;77;398120;-78
2020/12/05 00:35:33;;;;;;;1.50;1.30;;;;;;;0.50;100.00;96696.06;3754331;77;383529;-77
2020/12/05 00:40:38;;;;;;;17.83;4.07;;;;;;;0.50;100.00;96691.22;3832870;75;396071;-78
2020/12/05 00:45:43;;;;;;;7.60;1.80;;;;;;;0.53;100.00;96701.27;3765442;77;393961;-77
2020/12/05 00:50:49;;;;;;;1.90;1.80;;;;;;;0.52;100.00;96676.17;3769385;76;396085;-78
2020/12/05 00:55:54;;;;;;;1.97;1.47;;;;;;;0.65;100.00;96652.16;3756331;77;387732;-78
2020/12/05 01:00:59;;;;;;;5.70;2.87;;;;;;;0.57;100.00;96659.52;3706884;78;392907;-77
2020/12/05 01:06:04;;;;;;;1.97;1.87;;;;;;;0.63;100.00;96657.19;3685469;79;391949;-78
2020/12/05 01:11:20;;;;;;;3.03;2.80;;;;;;;0.66;100.00;96653.68;3685465;79;394993;-77
2020/12/05 01:16:27;;;;;;;15.73;5.17;;;;;;;0.62;100.00;96682.69;3685320;79;394046;-77
2020/12/05 01:21:31;;;;;;;12.70;3.10;;;;;;;0.52;100.00;96681.58;3685552;79;396313;-78
2020/12/05 01:26:36;;;;;;;6.00;3.10;;;;;;;0.50;100.00;96663.61;3708665;79;394226;-78
2020/12/05 01:31:42;;;;;;;1.60;1.40;;;;;;;0.49;100.00;96655.87;3685438;79;395028;-77
2020/12/05 01:36:47;;;;;;;4.77;1.60;;;;;;;0.26;100.00;96660.41;3685538;79;396089;-77
2020/12/05 01:41:52;;;;;;;3.13;2.73;;;;;;;0.17;100.00;96664.10;3684850;79;396089;-77
2020/12/05 01:46:58;;;;;;;2.90;1.57;;;;;;;0.13;100.00;96653.11;3683751;79;388783;-76
2020/12/05 01:52:03;;;;;;;6.10;3.00;;;;;;;-0.09;100.00;96635.41;3685124;79;396069;-77
2020/12/05 01:57:09;;;;;;;2.13;1.67;;;;;;;0.27;100.00;96650.36;3653409;78;395051;-77
2020/12/05 02:02:14;;;;;;;5.37;3.90;;;;;;;0.05;100.00;96655.05;3632394;79;396064;-77
2020/12/05 02:07:31;;;;;;;1.93;1.30;;;;;;;0.13;100.00;96670.08;3735323;77;394021;-76
2020/12/05 02:12:39;;;;;;;2.20;1.80;;;;;;;0.01;100.00;96721.06;3720881;78;396284;-78
2020/12/05 02:17:59;;;;;;;8.03;1.63;;;;;;;0.03;100.00;96726.30;3724820;77;391903;-78
2020/12/05 02:23:18;;;;;;;4.03;3.73;;;;;;;-0.13;100.00;96734.59;3721042;77;396076;-78
2020/12/05 02:28:24;;;;;;;2.67;1.97;;;;;;;-0.31;100.00;96723.59;3725466;77;392936;-78
2020/12/05 02:33:29;;;;;;;2.03;1.93;;;;;;;-0.19;100.00;96736.14;3740099;78;396073;-78
2020/12/05 02:38:44;;;;;;;3.27;2.73;;;;;;;-0.20;100.00;96708.92;3725521;78;395032;-77
2020/12/05 02:43:49;;;;;;;1.70;1.60;;;;;;;-0.27;100.00;96714.34;3734719;76;395056;-78
2020/12/05 02:48:54;;;;;;;17.03;4.00;;;;;;;-0.30;100.00;96735.94;3725733;78;391904;-77
2020/12/05 02:53:59;;;;;;;2.73;2.20;;;;;;;-0.36;100.00;96732.06;3731842;78;396337;-77
2020/12/05 02:59:04;;;;;;;1.70;1.60;;;;;;;-0.35;100.00;96748.45;3738814;77;396066;-77
2020/12/05 03:04:09;;;;;;;2.20;2.10;;;;;;;-0.36;100.00;96730.71;3778702;77;396380;-77
2020/12/05 03:09:15;;;;;;;2.50;2.40;;;;;;;-0.47;100.00;96752.89;3753299;77;392955;-77
2020/12/05 03:14:20;;;;;;;2.70;2.37;;;;;;;-0.38;100.00;96742.50;3753437;76;396100;-77
2020/12/05 03:19:25;;;;;;;6.00;2.90;;;;;;;-0.24;100.00;96765.45;3753290;78;396177;-78
2020/12/05 03:24:30;;;;;;;4.37;3.43;;;;;;;-0.29;100.00;96760.45;3753415;77;396066;-77
2020/12/05 03:29:38;;;;;;;2.73;2.53;;;;;;;-0.10;100.00;96785.16;3753483;78;396092;-77
2020/12/05 03:34:42;;;;;;;5.67;3.17;;;;;;;-0.13;100.00;96785.16;3753253;78;396245;-77
2020/12/05 03:39:49;;;;;;;7.90;2.57;;;;;;;-0.09;100.00;96826.44;3754274;77;396121;-77
2020/12/05 03:44:54;;;;;;;3.00;2.73;;;;;;;-0.11;100.00;96826.83;3753843;77;396033;-77
2020/12/05 03:49:59;;;;;;;3.17;2.70;;;;;;;-0.03;100.00;96833.78;3753541;77;396322;-77
2020/12/05 03:55:04;;;;;;;2.20;2.00;;;;;;;0.03;100.00;96851.95;3753171;77;396095;-76
2020/12/05 04:00:09;;;;;;;1.73;1.63;;;;;;;0.03;100.00;96871.42;3683181;77;391950;-76
2020/12/05 04:05:14;;;;;;;8.33;2.60;;;;;;;0.03;100.00;96840.34;3658634;79;395261;-75
2020/12/05 04:10:19;;;;;;;1.50;1.40;;;;;;;0.11;100.00;96852.14;3702739;78;391954;-76
2020/12/05 04:15:24;;;;;;;2.77;2.50;;;;;;;0.17;100.00;96849.81;3701622;78;396088;-77
2020/12/05 04:20:30;;;;;;;3.63;2.10;;;;;;;0.08;100.00;96901.55;3704356;79;396073;-76
2020/12/05 04:25:35;;;;;;;1.30;1.20;;;;;;;0.21;100.00;96928.98;3682112;78;396050;-78
2020/12/05 04:30:40;;;;;;;2.60;1.47;;;;;;;0.18;100.00;96954.86;3700140;79;396247;-77
2020/12/05 04:35:45;;;;;;;4.60;4.13;;;;;;;0.24;100.00;96966.84;3700423;78;396310;-76
2020/12/05 04:40:50;;;;;;;6.23;3.17;;;;;;;0.37;100.00;96977.47;3700728;78;393951;-77
2020/12/05 04:45:57;;;;;;;1.47;1.37;;;;;;;0.42;100.00;97008.77;3700940;79;396023;-76
2020/12/05 04:51:04;;;;;;;2.33;1.37;;;;;;;0.41;100.00;97009.92;3700390;78;396039;-76
2020/12/05 04:56:13;;;;;;;2.20;2.00;;;;;;;0.41;100.00;97011.27;3704645;77;396066;-76
2020/12/05 05:01:20;;;;;;;5.43;2.40;;;;;;;0.45;100.00;97014.77;3730201;77;390861;-77
2020/12/05 05:06:25;;;;;;;1.43;1.33;;;;;;;0.56;100.00;97038.57;3725299;78;396062;-77
2020/12/05 05:11:30;;;;;;;3.00;2.70;;;;;;;0.51;100.00;97063.27;3724787;77;396101;-76
2020/12/05 05:16:35;;;;;;;5.60;2.93;;;;;;;0.53;100.00;97082.59;3725469;78;393955;-77
2020/12/05 05:21:41;;;;;;;4.47;2.70;;;;;;;0.54;100.00;97103.09;3724484;78;396034;-76
2020/12/05 05:27:02;;;;;;;3.50;2.60;;;;;;;0.61;100.00;97111.22;3724796;78;396354;-78
2020/12/05 05:37:17;;;;;;;2.80;2.57;;;;;;;0.66;100.00;97066.20;3724502;77;396042;-77
2020/12/05 05:42:30;;;;;;;3.57;3.27;;;;;;;0.79;100.00;97123.62;3725633;77;396074;-79
2020/12/05 05:47:36;;;;;;;14.27;2.93;;;;;;;0.71;100.00;97198.41;3750021;77;396285;-79
2020/12/05 05:52:42;;;;;;;3.93;2.27;;;;;;;0.56;100.00;97185.39;3725038;78;396038;-79
2020/12/05 05:57:47;;;;;;;5.07;3.23;;;;;;;0.47;100.00;97192.31;3737050;78;396084;-79
2020/12/05 06:02:55;;;;;;;2.20;2.00;;;;;;;0.71;100.00;97215.99;3752651;78;396352;-78
2020/12/05 06:08:02;;;;;;;11.57;2.73;;;;;;;0.73;100.00;97204.98;3769620;77;389852;-77
2020/12/05 06:13:09;;;;;;;1.93;1.43;;;;;;;0.74;100.00;97204.39;3892632;74;396027;-78
2020/12/05 06:18:15;;;;;;;4.57;2.67;;;;;;;0.78;100.00;97216.02;3911919;74;389816;-79
2020/12/05 06:23:48;;;;;;;6.50;3.87;;;;;;;0.83;100.00;97222.61;3824766;76;396059;-78
2020/12/05 06:28:53;;;;;;;13.40;4.90;;;;;;;0.86;100.00;97229.19;3872971;75;400509;-78
2020/12/05 06:33:58;;;;;;;4.30;3.90;;;;;;;0.82;100.00;97234.58;3911962;74;383780;-79
2020/12/05 06:39:11;;;;;;;2.00;1.60;;;;;;;0.85;100.00;97249.28;3899737;75;396301;-78
2020/12/05 06:44:28;;;;;;;3.13;1.77;;;;;;;0.76;100.00;97248.87;3911656;74;396105;-78
2020/12/05 06:49:42;;;;;;;4.53;3.40;;;;;;;0.96;100.00;97263.64;3877333;75;396030;-78
2020/12/05 06:54:50;;;;;;;2.37;2.27;;;;;;;0.89;100.00;97264.37;3900082;75;392925;-77
2020/12/05 07:00:23;;;;;;;6.67;1.87;;;;;;;0.71;100.00;97260.05;3911427;74;392102;-78
2020/12/05 07:05:37;;;;;;;1.63;1.50;;;;;;;0.62;100.00;97258.26;3874473;75;383584;-78
2020/12/05 07:10:58;;;;;;;1.87;1.77;;;;;;;0.62;100.00;97289.36;3884276;75;391922;-78
2020/12/05 07:16:26;;;;;;;1.47;1.37;;;;;;;0.64;100.00;97303.30;3873157;75;395298;-78
2020/12/05 07:21:31;;;;;;;3.33;2.03;;;;;;;0.67;100.00;97377.52;3884706;75;396034;-78
2020/12/05 07:26:37;;;;;;;11.53;3.83;;;;;;;0.63;100.00;97389.66;3798101;77;396273;-78
2020/12/05 07:31:42;;;;;;;12.83;2.67;;;;;;;0.63;100.00;97403.78;3873441;75;398211;-79
2020/12/05 07:36:47;;;;;;;2.70;2.50;;;;;;;0.66;100.00;97400.30;3884074;75;396308;-78
2020/12/05 07:41:52;;;;;;;1.73;1.40;;;;;;;0.73;100.00;97400.39;3807965;76;391847;-78
2020/12/05 07:46:57;;;;;;;3.33;3.03;;;;;;;0.78;100.00;97419.73;3833584;76;396064;-78
2020/12/05 07:52:03;;;;;;;2.23;1.30;;;;;;;0.80;100.00;97437.73;3834365;76;394982;-78
2020/12/05 07:57:08;;;;;;;14.20;1.90;;;;;;;0.84;100.00;97436.60;3822455;76;392146;-78
2020/12/05 08:02:16;;;;;;;4.00;2.00;;;;;;;0.90;100.00;97436.44;3873782;74;396293;-78
2020/12/05 08:07:37;;;;;;;7.63;3.73;;;;;;;1.01;100.00;97417.00;3867636;75;396112;-78
2020/12/05 08:12:47;;;;;;;4.20;1.67;;;;;;;1.09;100.00;97414.54;3868569;75;396061;-78
2020/12/05 08:17:54;;;;;;;4.37;3.33;;;;;;;1.14;100.00;97435.06;3867547;75;396092;-79
2020/12/05 08:23:00;;;;;;;1.77;1.67;;;;;;;1.18;100.00;97463.72;3898193;73;395117;-78
2020/12/05 08:28:05;;;;;;;5.43;3.80;;;;;;;1.26;100.00;97494.32;3871825;73;396071;-78
2020/12/05 08:33:12;;;;;;;3.63;3.43;;;;;;;1.32;100.00;97520.69;3938628;74;396060;-78
2020/12/05 08:38:20;;;;;;;6.20;4.30;;;;;;;1.36;100.00;97529.63;3910880;74;386697;-78
2020/12/05 08:43:29;;;;;;;3.67;2.97;;;;;;;1.36;100.00;97551.86;3867043;75;396264;-78
2020/12/05 08:48:37;;;;;;;6.93;3.83;;;;;;;1.42;100.00;97568.74;3894012;74;396085;-78
2020/12/05 08:53:43;;;;;;;1.90;1.80;;;;;;;1.42;100.00;97570.09;3870870;74;388804;-78
2020/12/05 08:58:49;;;;;;;2.37;2.17;;;;;;;1.48;100.00;97571.30;3904701;74;396297;-79
2020/12/05 09:03:54;;;;;;;3.60;2.10;;;;;;;1.61;100.00;97573.92;3867214;75;396311;-78
2020/12/05 09:08:59;;;;;;;3.27;2.90;;;;;;;1.71;100.00;97571.84;3867391;75;396084;-78
2020/12/05 09:14:04;;;;;;;4.93;3.93;;;;;;;1.74;100.00;97580.58;3898910;74;396303;-78
2020/12/05 09:19:09;;;;;;;3.63;2.50;;;;;;;1.65;100.00;97595.03;3906869;74;396337;-78
2020/12/05 09:24:14;;;;;;;1.63;1.53;;;;;;;2.00;100.00;97585.77;3906673;74;396045;-78
2020/12/05 09:29:19;;;;;;;4.93;2.93;;;;;;;2.05;100.00;97596.25;3930991;73;396013;-78
2020/12/05 09:34:32;;;;;;;1.70;1.60;;;;;;;2.00;100.00;97598.73;3961084;73;383603;-78
2020/12/05 09:39:38;;;;;;;2.73;2.53;;;;;;;2.13;100.00;97587.78;3960577;73;392116;-78
2020/12/05 09:44:43;;;;;;;4.23;3.73;;;;;;;2.39;100.00;97577.99;3960359;73;396072;-78
2020/12/05 09:49:48;;;;;;;2.87;2.60;;;;;;;2.73;100.00;97605.85;3960216;73;396064;-78
2020/12/05 09:54:54;;;;;;;2.73;2.53;;;;;;;2.95;100.00;97607.45;3960205;73;396036;-79
2020/12/05 09:59:59;;;;;;;7.60;3.73;;;;;;;2.86;100.00;97607.63;3933184;73;396011;-79
2020/12/05 10:05:05;;;;;;;3.93;1.97;;;;;;;3.00;100.00;97615.20;3906914;74;388990;-79
2020/12/05 10:10:11;;;;;;;4.00;1.93;;;;;;;3.07;100.00;97615.81;3906821;74;394037;-79
2020/12/05 10:15:16;;;;;;;3.27;2.23;;;;;;;3.07;100.00;97615.81;3879710;74;396116;-79
2020/12/05 10:20:21;;;;;;;4.00;3.70;;;;;;;3.09;100.00;97616.21;3867780;75;396105;-79
2020/12/05 10:25:27;;;;;;;3.43;3.17;;;;;;;3.22;100.00;97614.10;3866945;75;396125;-79
2020/12/05 10:30:32;;;;;;;4.73;3.20;;;;;;;3.30;100.00;97623.22;3870992;75;396110;-78
2020/12/05 10:35:37;;;;;;;20.33;3.87;;;;;;;3.30;100.00;97642.24;3883943;75;396076;-79
2020/12/05 10:40:42;;;;;;;3.67;1.30;;;;;;;3.30;100.00;97642.83;3873609;75;394011;-79
2020/12/05 10:45:47;;;;;;;5.33;3.00;;;;;;;3.33;100.00;97636.05;3872717;75;396271;-79
2020/12/05 10:50:55;;;;;;;7.23;4.30;;;;;;;3.38;100.00;97647.12;3873585;75;394977;-78
2020/12/05 10:56:00;;;;;;;7.40;2.50;;;;;;;3.58;100.00;97640.13;3873322;75;396272;-78
2020/12/05 11:01:05;;;;;;;1.07;0.90;;;;;;;3.42;100.00;97656.03;3885221;75;387693;-79
2020/12/05 11:06:11;;;;;;;12.90;3.70;;;;;;;3.42;100.00;97637.80;3798493;77;400297;-78
2020/12/05 11:11:17;;;;;;;8.07;5.10;;;;;;;3.50;100.00;97645.36;3873927;75;396034;-78
2020/12/05 11:16:24;;;;;;;2.90;2.13;;;;;;;3.43;100.00;97654.28;3885089;75;396057;-78
2020/12/05 11:21:29;;;;;;;6.87;2.67;;;;;;;3.44;100.00;97667.30;3873491;75;396051;-77
2020/12/05 11:26:34;;;;;;;1.93;1.83;;;;;;;3.39;100.00;97671.77;3884243;75;396030;-78
2020/12/05 11:31:39;;;;;;;5.20;2.57;;;;;;;3.40;100.00;97682.25;3822176;76;396031;-78
2020/12/05 11:36:45;;;;;;;4.30;2.60;;;;;;;3.40;100.00;97678.17;3822940;76;396084;-78
2020/12/05 11:41:50;;;;;;;3.27;2.70;;;;;;;3.46;100.00;97693.52;3812819;76;396072;-78
2020/12/05 11:46:55;;;;;;;5.20;1.97;;;;;;;3.39;100.00;97696.23;3855555;75;396070;-80
2020/12/05 11:52:01;;;;;;;21.93;2.73;;;;;;;3.42;100.00;97688.08;3792951;76;396067;-80
2020/12/05 11:57:06;;;;;;;5.87;3.63;;;;;;;3.46;100.00;97697.59;3870793;75;396338;-79
2020/12/05 12:02:11;;;;;;;13.93;2.90;;;;;;;3.42;100.00;97692.72;3893269;74;398438;-80
2020/12/05 12:07:17;;;;;;;3.57;3.27;;;;;;;3.43;100.00;97678.73;3899299;75;396023;-80
2020/12/05 12:12:22;;;;;;;4.00;3.60;;;;;;;3.46;100.00;97663.03;3897345;74;396075;-79
2020/12/05 12:17:27;;;;;;;5.97;1.80;;;;;;;3.52;100.00;97664.78;3872778;75;396022;-79
2020/12/05 12:22:32;;;;;;;3.53;2.10;;;;;;;3.62;100.00;97676.26;3872700;75;394984;-79
2020/12/05 12:27:38;;;;;;;6.13;2.30;;;;;;;3.70;100.00;97683.25;3873051;75;396084;-79
2020/12/05 12:32:44;;;;;;;1.50;1.17;;;;;;;3.90;100.00;97689.84;3873088;75;395348;-79
2020/12/05 12:37:49;;;;;;;2.20;2.10;;;;;;;3.81;100.00;97689.45;3871877;75;392905;-79
2020/12/05 12:42:54;;;;;;;3.30;2.90;;;;;;;3.81;100.00;97687.53;3873290;75;396335;-79
2020/12/05 12:53:15;;;;;;;4.80;2.80;;;;;;;3.76;100.00;97689.86;3873079;75;386688;-78
2020/12/05 13:03:33;;;;;;;4.93;2.40;;;;;;;3.74;100.00;97692.17;3873035;75;390815;-78
2020/12/05 13:08:41;;;;;;;3.07;1.50;;;;;;;3.69;100.00;97691.21;3872271;75;392913;-78
2020/12/05 13:13:46;;;;;;;2.40;2.20;;;;;;;3.61;100.00;97699.17;3872723;73;396116;-78
2020/12/05 13:18:51;;;;;;;3.53;3.07;;;;;;;3.55;100.00;97697.41;3871059;75;396026;-78
2020/12/05 13:23:56;;;;;;;3.07;2.87;;;;;;;3.47;100.00;97704.00;3872725;75;396296;-78
2020/12/05 13:29:01;;;;;;;2.37;2.17;;;;;;;3.42;100.00;97691.37;3873623;75;393978;-78
2020/12/05 13:34:06;;;;;;;1.53;1.43;;;;;;;3.41;100.00;97723.78;3873487;75;385610;-78
2020/12/05 13:39:12;;;;;;;6.40;4.30;;;;;;;3.37;100.00;97734.64;3873131;75;396124;-78
2020/12/05 13:44:17;;;;;;;8.70;4.00;;;;;;;3.28;100.00;97738.30;3873715;75;393947;-78
2020/12/05 13:49:22;;;;;;;14.87;3.43;;;;;;;3.23;100.00;97725.70;3873187;75;396026;-78
2020/12/05 13:54:28;;;;;;;3.90;3.00;;;;;;;3.18;100.00;97722.77;3872853;75;396297;-78
2020/12/05 13:59:33;;;;;;;17.27;5.10;;;;;;;3.15;100.00;97728.16;3846474;75;396028;-78
2020/12/05 14:04:38;;;;;;;5.87;4.27;;;;;;;3.08;100.00;97740.37;3793888;76;396032;-78
2020/12/05 14:09:43;;;;;;;5.80;3.17;;;;;;;3.00;100.00;97736.66;3793668;76;396115;-78
2020/12/05 14:14:48;;;;;;;2.47;2.37;;;;;;;2.94;100.00;97750.42;3792603;76;391916;-78
2020/12/05 14:19:54;;;;;;;9.10;3.90;;;;;;;2.92;100.00;97762.23;3788141;77;396123;-78
2020/12/05 14:24:59;;;;;;;8.70;4.60;;;;;;;2.90;100.00;97747.69;3788661;77;396294;-78
2020/12/05 14:30:04;;;;;;;4.57;3.90;;;;;;;2.89;100.00;97747.48;3789135;77;396154;-78
2020/12/05 14:35:09;;;;;;;6.17;3.47;;;;;;;2.90;100.00;97750.97;3789195;77;396307;-78
2020/12/05 14:40:14;;;;;;;3.47;3.03;;;;;;;2.91;100.00;97736.23;3788901;77;396072;-78
2020/12/05 14:45:19;;;;;;;4.03;2.50;;;;;;;2.88;100.00;97725.56;3789328;76;396119;-77
2020/12/05 14:50:26;;;;;;;5.20;3.43;;;;;;;2.83;100.00;97730.58;3788772;77;394266;-78
2020/12/05 14:55:33;;;;;;;2.97;2.73;;;;;;;2.77;100.00;97722.01;3789086;77;393982;-78
2020/12/05 15:00:37;;;;;;;6.93;4.20;;;;;;;2.76;100.00;97707.47;3820327;75;396067;-78
2020/12/05 15:05:43;;;;;;;4.73;4.10;;;;;;;2.73;100.00;97713.09;3894104;74;396085;-78
2020/12/05 15:10:48;;;;;;;3.57;2.30;;;;;;;2.76;100.00;97725.88;3894348;74;396339;-78
2020/12/05 15:15:53;;;;;;;17.50;3.97;;;;;;;2.77;100.00;97729.39;3907121;74;396037;-78
2020/12/05 15:21:01;;;;;;;2.93;1.87;;;;;;;2.77;100.00;97730.75;3902451;75;395230;-78
2020/12/05 15:26:06;;;;;;;3.13;1.87;;;;;;;2.71;100.00;97738.47;3902174;75;396275;-78
2020/12/05 15:31:11;;;;;;;14.97;3.90;;;;;;;2.67;100.00;97736.30;3902426;75;396063;-78
2020/12/05 15:36:16;;;;;;;2.93;2.70;;;;;;;2.64;100.00;97727.58;3908677;74;396070;-78
2020/12/05 15:41:24;;;;;;;19.23;9.05;;;;;;;2.57;100.00;97729.47;3859503;74;3603310;-77
2020/12/05 15:46:29;;;;;;;10.17;4.50;;;;;;;2.54;100.00;97732.95;3916032;74;396070;-77
2020/12/05 15:51:34;;;;;;;5.57;3.60;;;;;;;2.50;100.00;97723.41;3915580;74;396220;-78
2020/12/05 15:56:39;;;;;;;14.43;5.07;;;;;;;2.52;100.00;97732.55;3915746;74;396271;-78
2020/12/05 16:01:45;;;;;;;14.50;5.50;;;;;;;2.46;100.00;97733.48;3904618;74;396128;-78
2020/12/05 16:06:52;;;;;;;5.53;1.77;;;;;;;2.47;100.00;97740.47;3943180;73;393996;-78
2020/12/05 16:11:57;;;;;;;4.87;4.47;;;;;;;2.53;100.00;97729.45;3942888;73;396294;-78
2020/12/05 16:17:03;;;;;;;3.03;2.60;;;;;;;2.59;100.00;97733.95;3923304;73;396351;-78
2020/12/05 16:22:08;;;;;;;5.27;4.80;;;;;;;2.65;100.00;97710.14;3891984;74;396038;-79
2020/12/05 16:27:13;;;;;;;2.20;2.00;;;;;;;2.61;100.00;97714.76;3882494;73;396295;-77
2020/12/05 16:32:18;;;;;;;4.83;3.33;;;;;;;2.58;100.00;97705.24;3826471;76;396035;-77
2020/12/05 16:37:25;;;;;;;6.30;5.50;;;;;;;2.55;100.00;97701.36;3852353;75;396079;-77
2020/12/05 16:42:33;;;;;;;2.70;2.50;;;;;;;2.49;100.00;97688.52;3884159;74;396118;-77
2020/12/05 16:47:38;;;;;;;16.80;5.20;;;;;;;2.48;100.00;97693.19;3917999;74;396295;-77
2020/12/05 16:52:44;;;;;;;6.63;2.73;;;;;;;2.45;100.00;97691.22;3917973;74;396300;-77
2020/12/05 16:57:49;;;;;;;4.70;3.57;;;;;;;2.39;100.00;97710.38;3918251;74;396087;-77
2020/12/05 17:02:54;;;;;;;2.13;1.93;;;;;;;2.33;100.00;97706.27;3812963;76;396066;-78
2020/12/05 17:07:59;;;;;;;6.50;2.87;;;;;;;2.27;100.00;97707.20;3827222;75;390872;-78
2020/12/05 17:13:04;;;;;;;2.10;2.00;;;;;;;2.24;100.00;97711.25;3861984;75;393141;-78
2020/12/05 17:18:10;;;;;;;2.30;2.07;;;;;;;2.27;100.00;97722.69;3869495;75;396050;-78
2020/12/05 17:23:15;;;;;;;5.43;2.33;;;;;;;2.27;100.00;97715.34;3838980;75;396106;-78
2020/12/05 17:28:20;;;;;;;6.27;3.40;;;;;;;2.26;100.00;97721.16;3862296;75;390818;-78
2020/12/05 17:33:25;;;;;;;7.73;3.53;;;;;;;2.25;100.00;97714.17;3862507;75;394060;-77
2020/12/05 17:38:30;;;;;;;1.77;1.67;;;;;;;2.22;100.00;97712.20;3861953;75;392153;-78
2020/12/05 17:43:36;;;;;;;4.17;3.80;;;;;;;2.24;100.00;97726.17;3861780;75;396016;-78
2020/12/05 17:48:41;;;;;;;13.70;4.27;;;;;;;2.28;100.00;97733.73;3861800;75;396294;-78
2020/12/05 17:53:46;;;;;;;6.70;2.70;;;;;;;2.37;100.00;97742.53;3862400;75;393991;-79
2020/12/05 17:58:51;;;;;;;4.20;2.50;;;;;;;2.35;100.00;97746.79;3863091;75;396059;-78
2020/12/05 18:03:57;;;;;;;2.80;2.17;;;;;;;2.29;100.00;97770.01;3873139;75;396276;-78
2020/12/05 18:09:02;;;;;;;4.43;4.00;;;;;;;2.32;100.00;97772.54;3860444;75;396031;-78
2020/12/05 18:14:07;;;;;;;3.53;3.23;;;;;;;2.34;100.00;97767.52;3810417;76;396115;-78
2020/12/05 18:19:12;;;;;;;3.57;3.27;;;;;;;2.36;100.00;97755.89;3818193;76;396319;-79
2020/12/05 18:24:18;;;;;;;2.43;2.30;;;;;;;2.39;100.00;97748.93;3808363;76;396028;-80
2020/12/05 18:29:24;;;;;;;4.83;3.13;;;;;;;2.28;100.00;97752.17;3808842;76;396269;-80
2020/12/05 18:34:29;;;;;;;1.27;1.10;;;;;;;2.29;100.00;97736.66;3814112;76;391857;-79
2020/12/05 18:39:34;;;;;;;2.83;1.67;;;;;;;2.26;100.00;97737.43;3816307;76;391861;-79
2020/12/05 18:44:39;;;;;;;4.40;4.10;;;;;;;2.15;100.00;97728.42;3821783;76;396036;-80
2020/12/05 18:49:44;;;;;;;5.77;4.57;;;;;;;2.13;100.00;97719.88;3831004;76;390798;-79
2020/12/05 18:54:49;;;;;;;4.70;2.30;;;;;;;2.00;100.00;97738.39;3826076;74;396168;-79
2020/12/05 18:59:55;;;;;;;9.23;3.33;;;;;;;1.98;100.00;97739.92;3837858;74;396027;-79
2020/12/05 19:05:00;;;;;;;2.53;2.33;;;;;;;2.00;100.00;97729.48;3864379;75;396191;-80
2020/12/05 19:10:05;;;;;;;6.50;2.90;;;;;;;1.99;100.00;97710.30;3832402;74;396112;-80
2020/12/05 19:15:10;;;;;;;10.67;3.70;;;;;;;1.95;100.00;97699.98;3750480;76;395000;-79
2020/12/05 19:20:15;;;;;;;5.13;4.00;;;;;;;2.02;100.00;97703.54;3753467;77;396091;-80
2020/12/05 19:25:20;;;;;;;3.53;3.17;;;;;;;1.93;100.00;97690.88;3793543;77;396012;-80
2020/12/05 19:30:25;;;;;;;7.10;4.97;;;;;;;1.93;100.00;97705.03;3811370;76;395970;-80
2020/12/05 19:35:31;;;;;;;6.43;5.30;;;;;;;1.90;100.00;97706.53;3969926;74;396000;-80
2020/12/05 19:40:36;;;;;;;3.60;3.00;;;;;;;1.79;100.00;97711.12;3970305;73;396004;-80
2020/12/05 19:45:41;;;;;;;5.10;4.53;;;;;;;1.74;100.00;97697.13;3969937;72;395985;-79
2020/12/05 19:50:46;;;;;;;4.10;2.90;;;;;;;1.70;100.00;97688.97;3969451;72;396093;-79
2020/12/05 19:55:51;;;;;;;5.07;4.70;;;;;;;1.84;100.00;97689.66;3969015;73;396008;-79
2020/12/05 20:00:56;;;;;;;3.60;3.27;;;;;;;1.87;100.00;97687.53;3918393;73;396035;-79
2020/12/05 20:06:02;;;;;;;4.37;1.73;;;;;;;1.87;100.00;97683.47;3914499;74;393857;-79
2020/12/05 20:11:10;;;;;;;2.10;1.97;;;;;;;1.79;100.00;97675.08;3917292;72;396348;-79
2020/12/05 20:16:15;;;;;;;10.07;4.50;;;;;;;1.87;100.00;97668.00;3917560;73;396009;-78
2020/12/05 20:21:20;;;;;;;12.17;4.90;;;;;;;1.90;100.00;97656.97;3917614;73;390793;-78
2020/12/05 20:26:25;;;;;;;9.50;5.97;;;;;;;1.86;100.00;97647.45;3916973;75;396208;-79
2020/12/05 20:31:32;;;;;;;3.30;2.83;;;;;;;1.88;100.00;97662.78;3916710;75;396425;-79
2020/12/05 20:36:37;;;;;;;4.20;3.80;;;;;;;1.97;100.00;97680.86;3916923;73;394952;-79
2020/12/05 20:41:42;;;;;;;4.27;4.07;;;;;;;1.85;100.00;97658.09;3917022;75;396050;-79
2020/12/05 20:46:50;;;;;;;4.60;3.80;;;;;;;1.88;100.00;97644.36;3916792;72;396169;-79
2020/12/05 20:51:55;;;;;;;3.33;3.07;;;;;;;1.86;100.00;97642.03;3916392;72;396045;-79
2020/12/05 20:57:01;;;;;;;2.33;2.03;;;;;;;1.91;100.00;97658.53;3916743;72;396137;-79
2020/12/05 21:02:06;;;;;;;4.30;3.50;;;;;;;1.86;100.00;97639.33;3915809;73;393957;-78
2020/12/05 21:07:11;;;;;;;4.50;3.00;;;;;;;1.98;100.00;97631.45;3895306;75;386643;-78
2020/12/05 21:12:16;;;;;;;4.83;3.77;;;;;;;1.97;100.00;97623.91;3887977;75;396227;-78
2020/12/05 21:17:22;;;;;;;6.20;1.37;;;;;;;2.11;100.00;97608.28;3887342;75;395991;-78
2020/12/05 21:22:27;;;;;;;2.53;2.37;;;;;;;2.12;100.00;97609.84;3789645;76;396096;-79
2020/12/05 21:27:32;;;;;;;4.73;3.73;;;;;;;2.19;100.00;97599.81;3788993;75;395993;-79
2020/12/05 21:32:39;;;;;;;7.87;3.07;;;;;;;1.95;100.00;97582.05;3789206;75;396111;-78
2020/12/05 21:37:45;;;;;;;4.30;2.63;;;;;;;1.87;100.00;97602.14;3788361;77;396270;-78
2020/12/05 21:42:50;;;;;;;13.77;5.60;;;;;;;1.83;100.00;97598.05;3789420;75;396027;-78
2020/12/05 21:47:56;;;;;;;5.90;4.83;;;;;;;1.90;100.00;97580.47;3789589;76;393239;-78
2020/12/05 21:53:01;;;;;;;1.73;1.50;;;;;;;2.07;100.00;97581.73;3788180;76;395976;-77
2020/12/05 21:58:06;;;;;;;1.40;1.30;;;;;;;2.10;100.00;97572.85;3787531;76;396115;-77
2020/12/05 22:03:11;;;;;;;5.57;2.60;;;;;;;1.98;100.00;97570.45;3787639;76;383512;-77
2020/12/05 22:08:17;;;;;;;4.53;2.30;;;;;;;2.04;100.00;97574.34;3790183;77;396088;-77
2020/12/05 22:13:22;;;;;;;7.13;3.20;;;;;;;2.06;100.00;97590.44;3727010;77;393975;-77
2020/12/05 22:18:27;;;;;;;13.53;2.87;;;;;;;1.99;100.00;97598.53;3719865;77;400282;-77
2020/12/05 22:23:32;;;;;;;2.03;1.87;;;;;;;2.00;100.00;97577.05;3790216;77;387981;-77
2020/12/05 22:28:37;;;;;;;3.80;3.27;;;;;;;2.08;100.00;97571.86;3789579;77;396407;-77
2020/12/05 22:33:42;;;;;;;2.10;1.90;;;;;;;2.05;100.00;97582.69;3790658;77;396056;-78
2020/12/05 22:38:53;;;;;;;3.80;2.67;;;;;;;2.06;100.00;97570.09;3790352;77;396084;-77
2020/12/05 22:43:58;;;;;;;14.57;2.70;;;;;;;2.16;100.00;97559.11;3789755;77;397110;-77
2020/12/05 22:49:03;;;;;;;5.83;5.13;;;;;;;2.15;100.00;97571.88;3789995;77;388729;-77
2020/12/05 22:54:08;;;;;;;2.70;2.40;;;;;;;2.10;100.00;97547.85;3789621;77;396081;-78
2020/12/05 22:59:13;;;;;;;6.67;4.13;;;;;;;2.21;100.00;97547.89;3812054;75;396261;-77
2020/12/05 23:04:19;;;;;;;3.80;3.30;;;;;;;2.13;100.00;97519.19;3901059;74;392891;-78
2020/12/05 23:09:24;;;;;;;3.90;2.90;;;;;;;2.14;100.00;97522.86;3900780;74;396054;-78
2020/12/05 23:14:29;;;;;;;2.83;2.63;;;;;;;2.12;100.00;97491.30;3900464;74;396058;-78
2020/12/05 23:19:35;;;;;;;4.20;2.33;;;;;;;2.12;100.00;97478.30;3902391;74;396429;-77
2020/12/05 23:24:40;;;;;;;13.20;1.93;;;;;;;2.15;100.00;97478.91;3880694;75;391890;-77
2020/12/05 23:29:46;;;;;;;1.83;1.23;;;;;;;2.14;100.00;97475.40;3891696;75;396022;-77
2020/12/05 23:34:51;;;;;;;2.33;2.23;;;;;;;2.20;100.00;97493.44;3881182;75;392846;-77
2020/12/05 23:39:56;;;;;;;1.83;1.70;;;;;;;2.18;100.00;97483.58;3881512;75;393960;-77
2020/12/05 23:45:02;;;;;;;4.00;3.20;;;;;;;2.23;100.00;97481.84;3883456;75;395995;-77
2020/12/05 23:50:07;;;;;;;2.40;1.33;;;;;;;2.27;100.00;97471.20;3881683;75;396093;-78
2020/12/05 23:55:12;;;;;;;2.30;2.20;;;;;;;2.21;100.00;97482.79;3881068;75;396034;-77
